createdAt,value
2019-01-20T00:02:29.464Z,49.07
2019-01-20T00:07:24.089Z,45.37
2019-01-20T00:12:18.713Z,44.80
2019-01-20T00:17:13.309Z,39.27
2019-01-20T00:22:07.999Z,43.67
2019-01-20T00:27:02.652Z,41.10
2019-01-20T00:31:57.264Z,38.17
2019-01-20T00:36:51.891Z,43.13
2019-01-20T00:41:46.528Z,40.47
2019-01-20T00:46:41.151Z,39.90
2019-01-20T00:51:35.855Z,42.00
2019-01-20T00:56:30.442Z,34.73
2019-01-20T01:01:25.129Z,38.63
2019-01-20T01:06:20.855Z,38.57
2019-01-20T01:11:15.484Z,36.20
2019-01-20T01:16:10.151Z,33.97
2019-01-20T01:21:04.937Z,37.37
2019-01-20T01:25:59.635Z,37.63
2019-01-20T01:30:54.262Z,38.53
2019-01-20T01:35:49.040Z,35.83
2019-01-20T01:40:43.644Z,35.63
2019-01-20T01:45:38.269Z,36.23
2019-01-20T01:50:32.909Z,35.87
2019-01-20T01:55:27.570Z,38.00
2019-01-20T02:00:23.787Z,38.83
2019-01-20T02:05:19.825Z,31.87
2019-01-20T02:10:18.298Z,35.33
2019-01-20T02:15:16.392Z,33.90
2019-01-20T02:20:15.468Z,37.17
2019-01-20T02:25:10.506Z,35.50
2019-01-20T02:30:14.632Z,36.80
2019-01-20T02:35:09.461Z,38.37
2019-01-20T02:40:07.221Z,34.17
2019-01-20T02:45:01.844Z,39.40
2019-01-20T02:49:56.483Z,39.80
2019-01-20T02:54:51.103Z,36.37
2019-01-20T02:59:45.729Z,43.57
2019-01-20T03:04:40.330Z,38.37
2019-01-20T03:09:34.958Z,35.87
2019-01-20T03:14:29.594Z,41.33
2019-01-20T03:19:24.312Z,39.60
2019-01-20T03:24:18.982Z,42.77
2019-01-20T03:29:13.748Z,43.27
2019-01-20T03:34:08.358Z,42.73
2019-01-20T03:39:03.196Z,47.73
2019-01-20T03:43:57.821Z,47.37
2019-01-20T03:48:52.488Z,41.00
2019-01-20T03:53:47.139Z,50.00
2019-01-20T03:58:41.815Z,47.67
2019-01-20T04:03:36.436Z,48.00
2019-01-20T04:08:31.021Z,53.63
2019-01-20T04:13:25.654Z,50.67
2019-01-20T04:18:20.258Z,51.93
2019-01-20T04:23:14.892Z,51.20
2019-01-20T04:28:09.492Z,50.93
2019-01-20T04:33:04.356Z,56.13
2019-01-20T04:37:59.024Z,56.43
2019-01-20T04:42:53.656Z,58.83
2019-01-20T04:47:48.463Z,56.97
2019-01-20T04:52:43.149Z,60.97
2019-01-20T04:57:38.022Z,59.50
2019-01-20T05:02:32.654Z,60.90
2019-01-20T05:07:27.274Z,60.07
2019-01-20T05:12:21.969Z,64.07
2019-01-20T05:17:16.592Z,64.63
2019-01-20T05:22:11.205Z,66.67
2019-01-20T05:27:05.908Z,61.73
2019-01-20T05:32:00.553Z,63.20
2019-01-20T05:36:55.145Z,64.93
2019-01-20T05:41:49.774Z,62.03
2019-01-20T05:46:44.387Z,60.20
2019-01-20T05:51:39.067Z,63.63
2019-01-20T05:56:33.692Z,63.70
2019-01-20T06:01:28.387Z,64.70
2019-01-20T06:06:23.006Z,66.67
2019-01-20T06:11:17.693Z,63.77
2019-01-20T06:16:12.327Z,65.73
2019-01-20T06:21:06.916Z,63.80
2019-01-20T06:26:01.540Z,63.07
2019-01-20T06:30:56.176Z,63.23
2019-01-20T06:35:50.881Z,64.00
2019-01-20T06:40:45.483Z,69.13
2019-01-20T06:45:40.122Z,60.60
2019-01-20T06:50:34.837Z,63.90
2019-01-20T06:55:29.538Z,65.37
2019-01-20T07:00:24.975Z,65.30
2019-01-20T07:05:19.941Z,64.50
2019-01-20T07:10:17.489Z,65.40
2019-01-20T07:15:16.371Z,67.00
2019-01-20T07:20:13.866Z,64.83
2019-01-20T07:25:09.789Z,68.07
2019-01-20T07:30:10.491Z,68.23
2019-01-20T07:35:07.710Z,63.70
2019-01-20T07:40:02.347Z,67.70
2019-01-20T07:44:56.970Z,67.87
2019-01-20T07:49:51.591Z,65.43
2019-01-20T07:54:46.186Z,67.40
2019-01-20T07:59:40.804Z,63.40
2019-01-20T08:04:35.435Z,65.30
2019-01-20T08:09:30.068Z,62.97
2019-01-20T08:14:24.671Z,64.23
2019-01-20T08:19:19.439Z,69.90
2019-01-20T08:24:14.148Z,63.37
2019-01-20T08:29:08.757Z,64.50
2019-01-20T08:34:03.383Z,62.13
2019-01-20T08:38:57.989Z,65.00
2019-01-20T08:43:52.618Z,64.43
2019-01-20T08:48:47.284Z,65.10
2019-01-20T08:53:41.895Z,60.87
2019-01-20T08:58:36.504Z,64.83
2019-01-20T09:03:31.106Z,64.67
2019-01-20T09:08:25.858Z,66.73
2019-01-20T09:13:20.739Z,63.67
2019-01-20T09:18:15.494Z,64.97
2019-01-20T09:23:10.108Z,67.03
2019-01-20T09:28:05.079Z,64.67
2019-01-20T09:32:59.767Z,60.07
2019-01-20T09:37:54.389Z,60.13
2019-01-20T09:42:48.997Z,63.07
2019-01-20T09:47:43.602Z,63.43
2019-01-20T09:52:38.210Z,59.73
2019-01-20T09:57:32.889Z,60.50
2019-01-20T10:02:27.561Z,61.97
2019-01-20T10:07:22.257Z,58.93
2019-01-20T10:12:16.872Z,66.37
2019-01-20T10:17:11.531Z,60.70
2019-01-20T10:22:06.388Z,60.00
2019-01-20T10:27:00.997Z,59.37
2019-01-20T10:31:55.636Z,59.00
2019-01-20T10:36:50.242Z,60.20
2019-01-20T10:41:44.928Z,56.73
2019-01-20T10:46:39.542Z,53.83
2019-01-20T10:51:34.159Z,56.43
2019-01-20T10:56:28.753Z,52.77
2019-01-20T11:01:23.359Z,59.07
2019-01-20T11:06:17.964Z,54.93
2019-01-20T11:11:12.641Z,54.87
2019-01-20T11:16:07.339Z,53.87
2019-01-20T11:21:02.008Z,54.63
2019-01-20T11:25:56.632Z,57.17
2019-01-20T11:30:51.380Z,50.93
2019-01-20T11:35:45.999Z,49.47
2019-01-20T11:40:40.619Z,46.67
2019-01-20T11:45:35.445Z,44.87
2019-01-20T11:50:30.468Z,44.53
2019-01-20T11:55:25.760Z,49.60
2019-01-20T12:00:32.882Z,44.33
2019-01-20T12:05:27.787Z,48.23
2019-01-20T12:10:22.737Z,49.10
2019-01-20T12:15:17.956Z,46.13
2019-01-20T12:20:15.678Z,49.67
2019-01-20T12:25:16.757Z,46.60
2019-01-20T12:30:24.880Z,54.30
2019-01-20T12:35:19.625Z,53.30
2019-01-20T12:40:27.836Z,53.97
2019-01-20T12:45:22.462Z,54.10
2019-01-20T12:50:19.120Z,54.93
2019-01-20T12:55:16.833Z,50.33
2019-01-20T13:00:18.595Z,59.53
2019-01-20T13:05:13.807Z,53.33
2019-01-20T13:10:12.750Z,54.57
2019-01-20T13:15:14.262Z,51.20
2019-01-20T13:20:21.552Z,52.57
2019-01-20T13:25:20.351Z,55.20
2019-01-20T13:30:18.775Z,49.60
2019-01-20T13:35:14.288Z,54.60
2019-01-20T13:40:22.263Z,53.20
2019-01-20T13:45:16.983Z,53.23
2019-01-20T13:50:19.069Z,55.10
2019-01-20T13:55:16.208Z,49.67
2019-01-20T14:00:23.851Z,49.60
2019-01-20T14:05:18.508Z,51.03
2019-01-20T14:10:25.125Z,54.37
2019-01-20T14:15:19.725Z,50.23
2019-01-20T14:20:23.375Z,49.60
2019-01-20T14:25:21.768Z,48.10
2019-01-20T14:30:23.488Z,51.77
2019-01-20T14:35:18.284Z,52.63
2019-01-20T14:40:16.706Z,51.73
2019-01-20T14:45:15.536Z,52.53
2019-01-20T14:50:23.247Z,51.00
2019-01-20T14:55:18.114Z,51.00
2019-01-20T15:00:26.074Z,52.20
2019-01-20T15:05:20.748Z,51.27
2019-01-20T15:10:17.065Z,52.37
2019-01-20T15:15:25.024Z,54.73
2019-01-20T15:20:19.844Z,60.17
2019-01-20T15:25:21.253Z,54.80
2019-01-20T15:30:33.647Z,56.57
2019-01-20T15:35:28.391Z,54.77
2019-01-20T15:40:25.811Z,54.53
2019-01-20T15:45:23.147Z,57.57
2019-01-20T15:50:24.912Z,53.83
2019-01-20T15:55:19.605Z,56.13
2019-01-20T16:00:18.468Z,54.40
2019-01-20T16:05:13.503Z,62.97
2019-01-20T16:10:12.454Z,61.47
2019-01-20T16:15:11.643Z,60.97
2019-01-20T16:20:10.849Z,62.50
2019-01-20T16:25:12.745Z,61.10
2019-01-20T16:30:11.971Z,58.50
2019-01-20T16:35:11.177Z,58.17
2019-01-20T16:40:12.971Z,61.87
2019-01-20T16:45:13.074Z,60.63
2019-01-20T16:50:15.439Z,58.50
2019-01-20T16:55:12.867Z,61.90
2019-01-20T17:00:28.944Z,59.90
2019-01-20T17:05:26.887Z,61.03
2019-01-20T17:10:26.290Z,64.37
2019-01-20T17:15:31.139Z,57.17
2019-01-20T17:20:25.903Z,58.57
2019-01-20T17:25:20.598Z,60.33
2019-01-20T17:30:21.785Z,59.10
2019-01-20T17:35:16.923Z,60.63
2019-01-20T17:40:16.488Z,65.33
2019-01-20T17:45:16.194Z,67.20
2019-01-20T17:50:15.624Z,65.37
2019-01-20T17:55:10.955Z,65.80
2019-01-20T18:00:10.166Z,63.77
2019-01-20T18:05:08.285Z,60.87
2019-01-20T18:10:03.463Z,69.83
2019-01-20T18:14:58.092Z,70.80
2019-01-20T18:19:52.725Z,70.93
2019-01-20T18:24:47.320Z,76.50
2019-01-20T18:29:41.946Z,75.63
2019-01-20T18:34:36.580Z,68.10
2019-01-20T18:39:31.190Z,71.83
2019-01-20T18:44:25.802Z,73.80
2019-01-20T18:49:20.488Z,73.33
2019-01-20T18:54:15.115Z,69.13
2019-01-20T18:59:09.710Z,66.80
2019-01-20T19:04:04.395Z,65.60
2019-01-20T19:08:59.056Z,67.97
2019-01-20T19:13:53.684Z,72.30
2019-01-20T19:18:48.297Z,78.63
2019-01-20T19:23:42.905Z,67.40
2019-01-20T19:28:37.523Z,65.30
2019-01-20T19:33:32.128Z,65.47
2019-01-20T19:38:26.733Z,65.93
2019-01-20T19:43:21.360Z,72.80
2019-01-20T19:48:20.191Z,66.90
2019-01-20T19:53:12.286Z,71.73
2019-01-20T19:58:06.966Z,67.13
2019-01-20T20:03:01.644Z,68.40
2019-01-20T20:07:57.775Z,66.00
2019-01-20T20:12:52.839Z,66.73
2019-01-20T20:17:47.474Z,62.40
2019-01-20T20:22:42.149Z,58.23
2019-01-20T20:27:36.906Z,62.40
2019-01-20T20:32:31.597Z,63.93
2019-01-20T20:37:26.265Z,60.77
2019-01-20T20:42:20.869Z,64.93
2019-01-20T20:47:15.463Z,57.73
2019-01-20T20:52:10.220Z,63.50
2019-01-20T20:57:04.997Z,61.40
2019-01-20T21:01:59.679Z,66.07
2019-01-20T21:06:54.295Z,62.70
2019-01-20T21:11:48.927Z,61.00
2019-01-20T21:16:43.554Z,59.87
2019-01-20T21:21:38.249Z,59.47
2019-01-20T21:26:32.884Z,62.03
2019-01-20T21:31:27.586Z,62.77
2019-01-20T21:36:22.187Z,64.03
2019-01-20T21:41:16.865Z,61.47
2019-01-20T21:46:11.613Z,68.57
2019-01-20T21:51:06.219Z,65.13
2019-01-20T21:56:00.836Z,64.43
2019-01-20T22:00:55.465Z,64.43
2019-01-20T22:05:50.059Z,63.47
2019-01-20T22:10:44.665Z,59.50
2019-01-20T22:15:39.304Z,59.60
2019-01-20T22:20:33.972Z,55.67
2019-01-20T22:25:28.608Z,58.90
2019-01-20T22:30:26.203Z,62.67
2019-01-20T22:35:20.937Z,63.77
2019-01-20T22:40:18.663Z,59.37
2019-01-20T22:45:17.499Z,60.93
2019-01-20T22:50:14.227Z,63.77
2019-01-20T22:55:15.271Z,63.83
2019-01-20T23:00:27.854Z,58.60
2019-01-20T23:05:22.459Z,60.40
2019-01-20T23:10:17.083Z,63.50
2019-01-20T23:15:11.897Z,60.13
2019-01-20T23:20:11.101Z,57.87
2019-01-20T23:25:06.777Z,57.90
2019-01-20T23:30:01.425Z,58.07
2019-01-20T23:34:56.030Z,54.40
2019-01-20T23:39:50.627Z,58.63
2019-01-20T23:44:45.316Z,55.57
2019-01-20T23:49:39.904Z,50.67
2019-01-20T23:54:34.517Z,55.83
2019-01-20T23:59:29.208Z,57.00
